createdAt,value
2023-01-21T00:02:06.287Z,3.47
2023-01-21T00:04:32.774Z,3.47
2023-01-21T00:06:59.356Z,4.40
2023-01-21T00:09:25.892Z,4.75
2023-01-21T00:11:52.373Z,4.47
2023-01-21T00:14:19.005Z,4.28
2023-01-21T00:16:45.495Z,4.15
2023-01-21T00:19:12.017Z,3.88
2023-01-21T00:21:38.730Z,3.92
2023-01-21T00:24:05.477Z,3.38
2023-01-21T00:26:32.037Z,3.83
2023-01-21T00:28:58.545Z,3.00
2023-01-21T00:31:25.204Z,3.13
2023-01-21T00:33:51.844Z,3.30
2023-01-21T00:36:18.351Z,3.17
2023-01-21T00:38:46.882Z,3.15
2023-01-21T00:41:13.661Z,3.00
2023-01-21T00:43:42.239Z,3.70
2023-01-21T00:46:08.824Z,3.30
2023-01-21T00:48:35.421Z,3.00
2023-01-21T00:51:02.053Z,3.45
2023-01-21T00:53:29.841Z,3.58
2023-01-21T00:56:03.707Z,3.28
2023-01-21T00:58:30.416Z,3.65
2023-01-21T01:01:01.508Z,4.03
2023-01-21T01:03:28.225Z,3.42
2023-01-21T01:05:54.786Z,3.08
2023-01-21T01:08:21.319Z,4.20
2023-01-21T01:10:47.807Z,3.22
2023-01-21T01:13:14.254Z,3.38
2023-01-21T01:15:40.824Z,3.45
2023-01-21T01:18:07.435Z,3.42
2023-01-21T01:20:33.968Z,3.38
2023-01-21T01:23:00.464Z,3.53
2023-01-21T01:25:26.960Z,3.50
2023-01-21T01:27:53.441Z,3.60
2023-01-21T01:30:19.976Z,4.15
2023-01-21T01:32:46.509Z,3.78
2023-01-21T01:35:13.375Z,3.30
2023-01-21T01:37:40.035Z,3.78
2023-01-21T01:40:07.397Z,3.63
2023-01-21T01:42:34.175Z,4.55
2023-01-21T01:45:04.035Z,4.20
2023-01-21T01:47:40.222Z,3.30
2023-01-21T01:50:07.282Z,3.38
2023-01-21T01:52:33.770Z,2.97
2023-01-21T01:55:00.339Z,3.38
2023-01-21T01:57:31.320Z,3.75
2023-01-21T01:59:57.977Z,3.72
2023-01-21T02:02:24.538Z,3.72
2023-01-21T02:04:53.665Z,3.85
2023-01-21T02:07:20.644Z,3.85
2023-01-21T02:09:47.157Z,3.38
2023-01-21T02:12:13.696Z,3.95
2023-01-21T02:14:40.205Z,3.90
2023-01-21T02:17:23.879Z,3.42
2023-01-21T02:20:17.870Z,3.30
2023-01-21T02:22:56.530Z,3.33
2023-01-21T02:25:38.170Z,3.40
2023-01-21T02:28:19.866Z,3.17
2023-01-21T02:31:17.382Z,3.08
2023-01-21T02:33:50.523Z,3.63
2023-01-21T02:36:35.091Z,3.75
2023-01-21T02:39:27.590Z,3.35
2023-01-21T02:42:04.728Z,3.05
2023-01-21T02:44:31.399Z,3.20
2023-01-21T02:47:16.648Z,3.42
2023-01-21T02:49:53.027Z,3.50
2023-01-21T02:52:21.025Z,3.55
2023-01-21T02:54:49.142Z,2.83
2023-01-21T02:57:19.008Z,3.88
2023-01-21T02:59:47.725Z,3.78
2023-01-21T03:02:39.122Z,3.47
2023-01-21T03:05:11.651Z,3.85
2023-01-21T03:08:11.692Z,3.53
2023-01-21T03:10:48.591Z,3.55
2023-01-21T03:13:18.637Z,4.07
2023-01-21T03:15:52.390Z,3.60
2023-01-21T03:18:29.510Z,2.92
2023-01-21T03:20:58.879Z,3.47
2023-01-21T03:23:36.811Z,3.65
2023-01-21T03:26:03.405Z,4.03
2023-01-21T03:28:31.930Z,3.80
2023-01-21T03:31:12.691Z,3.90
2023-01-21T03:33:40.187Z,3.88
2023-01-21T03:36:14.394Z,3.25
2023-01-21T03:38:46.048Z,2.92
2023-01-21T03:41:23.467Z,3.40
2023-01-21T03:43:50.690Z,3.35
2023-01-21T03:46:40.422Z,3.00
2023-01-21T03:49:25.232Z,3.38
2023-01-21T03:51:53.934Z,3.70
2023-01-21T03:54:20.530Z,3.28
2023-01-21T03:56:47.148Z,3.08
2023-01-21T03:59:13.717Z,3.13
2023-01-21T04:01:40.260Z,3.03
2023-01-21T04:04:08.672Z,3.50
2023-01-21T04:06:35.232Z,3.45
2023-01-21T04:09:01.805Z,4.20
2023-01-21T04:11:28.325Z,3.53
2023-01-21T04:13:54.946Z,3.63
2023-01-21T04:16:22.158Z,3.88
2023-01-21T04:18:48.726Z,3.78
2023-01-21T04:21:15.296Z,2.85
2023-01-21T04:23:41.894Z,3.28
2023-01-21T04:26:08.503Z,3.60
2023-01-21T04:28:37.226Z,3.17
2023-01-21T04:31:03.869Z,3.50
2023-01-21T04:33:30.403Z,3.38
2023-01-21T04:35:57.926Z,3.40
2023-01-21T04:38:24.563Z,3.10
2023-01-21T04:40:51.637Z,3.17
2023-01-21T04:43:18.261Z,3.28
2023-01-21T04:45:44.808Z,3.17
2023-01-21T04:48:11.461Z,3.30
2023-01-21T04:50:37.967Z,3.40
2023-01-21T04:53:04.527Z,3.70
2023-01-21T04:55:31.086Z,2.97
2023-01-21T04:58:04.115Z,3.38
2023-01-21T05:00:37.354Z,3.63
2023-01-21T05:03:04.231Z,3.08
2023-01-21T05:05:30.904Z,3.50
2023-01-21T05:07:57.478Z,3.33
2023-01-21T05:10:24.028Z,3.70
2023-01-21T05:12:50.619Z,3.17
2023-01-21T05:15:17.206Z,2.90
2023-01-21T05:17:43.723Z,3.53
2023-01-21T05:20:10.885Z,3.80
2023-01-21T05:22:37.528Z,4.00
2023-01-21T05:25:05.092Z,4.43
2023-01-21T05:27:31.671Z,3.83
2023-01-21T05:29:58.247Z,3.25
2023-01-21T05:32:24.919Z,3.85
2023-01-21T05:34:51.462Z,3.92
2023-01-21T05:37:18.093Z,3.22
2023-01-21T05:39:44.614Z,3.53
2023-01-21T05:42:11.153Z,3.90
2023-01-21T05:44:37.714Z,4.25
2023-01-21T05:47:04.267Z,4.25
2023-01-21T05:49:30.800Z,4.10
2023-01-21T05:51:57.335Z,3.35
2023-01-21T05:54:23.833Z,3.80
2023-01-21T05:56:50.402Z,3.70
2023-01-21T05:59:16.911Z,4.00
2023-01-21T06:01:43.428Z,4.00
2023-01-21T06:04:09.969Z,3.90
2023-01-21T06:06:36.593Z,4.28
2023-01-21T06:09:03.120Z,5.18
2023-01-21T06:11:29.731Z,6.13
2023-01-21T06:13:56.381Z,5.07
2023-01-21T06:16:23.023Z,4.70
2023-01-21T06:18:49.630Z,3.92
2023-01-21T06:21:16.171Z,4.20
2023-01-21T06:23:42.763Z,4.53
2023-01-21T06:26:09.398Z,4.90
2023-01-21T06:28:36.009Z,4.28
2023-01-21T06:31:02.966Z,3.92
2023-01-21T06:33:29.658Z,3.30
2023-01-21T06:35:56.162Z,3.55
2023-01-21T06:38:22.723Z,4.75
2023-01-21T06:40:49.305Z,4.15
2023-01-21T06:43:15.948Z,4.28
2023-01-21T06:45:42.526Z,4.32
2023-01-21T06:48:09.055Z,3.88
2023-01-21T06:50:35.669Z,3.80
2023-01-21T06:53:02.337Z,4.00
2023-01-21T06:55:28.865Z,4.07
2023-01-21T06:57:55.473Z,3.88
2023-01-21T07:00:22.199Z,3.88
2023-01-21T07:02:48.916Z,4.20
2023-01-21T07:05:15.886Z,4.97
2023-01-21T07:07:42.782Z,4.70
2023-01-21T07:10:09.987Z,5.00
2023-01-21T07:12:36.657Z,4.25
2023-01-21T07:15:03.402Z,4.00
2023-01-21T07:17:29.932Z,4.35
2023-01-21T07:19:56.555Z,4.85
2023-01-21T07:22:23.164Z,4.95
2023-01-21T07:24:49.741Z,4.00
2023-01-21T07:27:16.328Z,4.55
2023-01-21T07:29:42.878Z,3.95
2023-01-21T07:32:09.456Z,4.50
2023-01-21T07:34:35.970Z,4.32
2023-01-21T07:37:02.571Z,5.13
2023-01-21T07:39:29.119Z,5.43
2023-01-21T07:41:55.724Z,4.63
2023-01-21T07:44:22.296Z,4.53
2023-01-21T07:46:48.823Z,4.10
2023-01-21T07:49:15.367Z,3.92
2023-01-21T07:51:41.921Z,4.88
2023-01-21T07:54:09.778Z,4.43
2023-01-21T07:56:36.629Z,4.50
2023-01-21T07:59:03.138Z,5.00
2023-01-21T08:01:29.762Z,4.25
2023-01-21T08:03:56.717Z,4.28
2023-01-21T08:06:23.566Z,4.47
2023-01-21T08:08:50.073Z,4.20
2023-01-21T08:11:16.726Z,4.63
2023-01-21T08:13:43.545Z,4.80
2023-01-21T08:16:10.270Z,4.65
2023-01-21T08:18:36.879Z,4.70
2023-01-21T08:21:03.638Z,4.20
2023-01-21T08:23:30.281Z,4.95
2023-01-21T08:25:56.800Z,5.38
2023-01-21T08:28:23.531Z,4.18
2023-01-21T08:30:50.590Z,4.20
2023-01-21T08:33:17.532Z,5.78
2023-01-21T08:35:44.427Z,5.35
2023-01-21T08:38:11.182Z,4.70
2023-01-21T08:40:37.730Z,5.10
2023-01-21T08:43:04.626Z,4.65
2023-01-21T08:45:31.295Z,4.57
2023-01-21T08:47:57.939Z,4.68
2023-01-21T08:50:25.032Z,4.05
2023-01-21T08:52:52.627Z,4.22
2023-01-21T08:55:19.631Z,5.55
2023-01-21T08:57:46.353Z,4.70
2023-01-21T09:00:13.709Z,4.70
2023-01-21T09:02:40.645Z,3.55
2023-01-21T09:05:07.884Z,5.15
2023-01-21T09:07:34.423Z,4.50
2023-01-21T09:10:01.158Z,4.95
2023-01-21T09:12:27.672Z,4.72
2023-01-21T09:14:54.242Z,4.85
2023-01-21T09:17:20.843Z,3.97
2023-01-21T09:19:47.446Z,4.60
2023-01-21T09:22:14.123Z,4.85
2023-01-21T09:24:41.051Z,4.95
2023-01-21T09:27:08.159Z,4.30
2023-01-21T09:29:34.747Z,5.22
2023-01-21T09:32:01.493Z,5.45
2023-01-21T09:34:28.151Z,4.75
2023-01-21T09:36:54.985Z,5.10
2023-01-21T09:39:21.497Z,5.00
2023-01-21T09:41:55.106Z,5.72
2023-01-21T09:44:29.202Z,4.35
2023-01-21T09:47:17.073Z,4.43
2023-01-21T09:49:54.858Z,4.90
2023-01-21T09:52:27.395Z,4.47
2023-01-21T09:54:55.031Z,4.50
2023-01-21T09:57:39.981Z,4.40
2023-01-21T10:00:35.992Z,4.50
2023-01-21T10:03:08.607Z,4.45
2023-01-21T10:05:53.481Z,3.80
2023-01-21T10:08:28.928Z,4.28
2023-01-21T10:10:58.528Z,3.50
2023-01-21T10:13:48.360Z,4.13
2023-01-21T10:16:27.584Z,4.30
2023-01-21T10:18:54.163Z,4.65
2023-01-21T10:21:31.179Z,4.88
2023-01-21T10:24:18.860Z,4.32
2023-01-21T10:26:45.862Z,4.35
2023-01-21T10:29:19.525Z,4.28
2023-01-21T10:31:51.648Z,3.63
2023-01-21T10:34:18.562Z,3.97
2023-01-21T10:36:44.962Z,4.82
2023-01-21T10:39:27.015Z,4.75
2023-01-21T10:42:18.503Z,3.85
2023-01-21T10:44:57.228Z,3.85
2023-01-21T10:47:27.424Z,3.88
2023-01-21T10:50:26.109Z,3.92
2023-01-21T10:53:29.435Z,3.65
2023-01-21T10:56:00.277Z,4.25
2023-01-21T10:58:31.585Z,3.63
2023-01-21T11:00:59.490Z,4.10
2023-01-21T11:03:33.524Z,3.70
2023-01-21T11:06:00.164Z,3.85
2023-01-21T11:08:26.935Z,4.30
2023-01-21T11:10:53.751Z,4.10
2023-01-21T11:13:20.408Z,3.95
2023-01-21T11:15:57.029Z,4.82
2023-01-21T11:18:33.273Z,4.82
2023-01-21T11:21:16.492Z,4.13
2023-01-21T11:23:43.209Z,3.97
2023-01-21T11:26:18.790Z,4.05
2023-01-21T11:28:45.389Z,3.95
2023-01-21T11:31:14.988Z,4.25
2023-01-21T11:33:42.509Z,4.22
2023-01-21T11:36:13.687Z,3.70
2023-01-21T11:38:44.083Z,4.03
2023-01-21T11:41:15.467Z,4.07
2023-01-21T11:43:53.023Z,3.95
2023-01-21T11:46:28.514Z,4.20
2023-01-21T11:51:29.939Z,6.53
2023-01-21T11:54:22.086Z,6.40
2023-01-21T11:56:55.719Z,7.57
2023-01-21T11:59:34.000Z,5.28
2023-01-21T12:02:20.731Z,5.95
2023-01-21T12:04:55.670Z,4.22
2023-01-21T12:07:27.115Z,3.85
2023-01-21T12:10:06.746Z,4.20
2023-01-21T12:12:57.921Z,3.85
2023-01-21T12:15:45.462Z,3.58
2023-01-21T12:18:19.608Z,3.85
2023-01-21T12:21:04.043Z,3.60
2023-01-21T12:23:47.308Z,3.70
2023-01-21T12:26:32.076Z,3.67
2023-01-21T12:29:13.981Z,3.65
2023-01-21T12:31:47.410Z,3.10
2023-01-21T12:34:51.581Z,3.78
2023-01-21T12:37:21.032Z,3.28
2023-01-21T12:39:50.787Z,3.30
2023-01-21T12:42:27.734Z,3.17
2023-01-21T12:44:56.928Z,3.10
2023-01-21T12:47:25.289Z,2.90
2023-01-21T12:50:31.024Z,2.95
2023-01-21T12:53:20.353Z,2.75
2023-01-21T12:56:10.578Z,2.90
2023-01-21T12:58:43.187Z,3.05
2023-01-21T13:01:11.947Z,3.40
2023-01-21T13:03:59.907Z,2.88
2023-01-21T13:06:53.238Z,2.80
2023-01-21T13:09:38.664Z,2.80
2023-01-21T13:12:13.243Z,2.70
2023-01-21T13:14:41.146Z,2.70
2023-01-21T13:17:13.569Z,2.33
2023-01-21T13:19:40.141Z,2.50
2023-01-21T13:22:24.085Z,2.40
2023-01-21T13:25:01.332Z,2.30
2023-01-21T13:27:39.823Z,2.20
2023-01-21T13:30:40.593Z,1.88
2023-01-21T13:33:25.220Z,3.38
2023-01-21T13:36:06.590Z,2.92
2023-01-21T13:38:49.645Z,3.15
2023-01-21T13:41:42.180Z,2.05
2023-01-21T13:44:19.708Z,2.80
2023-01-21T13:47:17.073Z,2.50
2023-01-21T13:50:01.897Z,2.22
2023-01-21T13:52:49.328Z,2.17
2023-01-21T13:55:44.036Z,2.47
2023-01-21T13:58:13.219Z,2.13
2023-01-21T14:00:52.299Z,2.40
2023-01-21T14:03:37.525Z,1.80
2023-01-21T14:06:23.567Z,2.70
2023-01-21T14:09:13.525Z,2.40
2023-01-21T14:12:30.010Z,2.45
2023-01-21T14:15:36.710Z,2.20
2023-01-21T14:20:46.420Z,1.92
2023-01-21T14:23:38.546Z,1.85
2023-01-21T14:26:36.890Z,2.22
2023-01-21T14:29:30.203Z,2.33
2023-01-21T14:32:21.036Z,2.97
2023-01-21T14:34:57.056Z,2.53
2023-01-21T14:37:28.750Z,3.33
2023-01-21T14:40:25.631Z,3.47
2023-01-21T14:42:52.144Z,3.58
2023-01-21T14:45:20.621Z,2.92
2023-01-21T14:47:48.867Z,3.03
2023-01-21T14:50:44.115Z,2.67
2023-01-21T14:53:31.502Z,3.00
2023-01-21T14:56:21.732Z,2.85
2023-01-21T14:58:50.111Z,2.83
2023-01-21T15:01:35.411Z,2.28
2023-01-21T15:04:04.233Z,2.75
2023-01-21T15:06:30.748Z,3.03
2023-01-21T15:08:58.918Z,2.33
2023-01-21T15:11:30.916Z,2.40
2023-01-21T15:14:14.356Z,2.53
2023-01-21T15:16:44.413Z,2.40
2023-01-21T15:19:11.833Z,2.63
2023-01-21T15:21:41.382Z,2.67
2023-01-21T15:24:29.931Z,2.40
2023-01-21T15:27:14.700Z,2.85
2023-01-21T15:29:42.745Z,2.63
2023-01-21T15:32:21.469Z,3.08
2023-01-21T15:34:48.824Z,3.60
2023-01-21T15:37:20.878Z,3.10
2023-01-21T15:39:48.292Z,3.13
2023-01-21T15:42:36.019Z,3.38
2023-01-21T15:45:12.240Z,3.10
2023-01-21T15:47:47.156Z,3.00
2023-01-21T15:50:27.702Z,3.17
2023-01-21T15:53:03.377Z,2.90
2023-01-21T15:55:48.207Z,2.72
2023-01-21T15:58:14.616Z,2.70
2023-01-21T16:00:57.588Z,3.40
2023-01-21T16:03:29.144Z,3.47
2023-01-21T16:06:19.993Z,2.50
2023-01-21T16:09:04.855Z,2.83
2023-01-21T16:11:56.366Z,3.55
2023-01-21T16:14:45.023Z,3.38
2023-01-21T16:17:36.048Z,3.15
2023-01-21T16:20:04.031Z,2.80
2023-01-21T16:22:32.242Z,3.25
2023-01-21T16:25:01.675Z,2.95
2023-01-21T16:27:29.591Z,3.60
2023-01-21T16:29:57.310Z,3.85
2023-01-21T16:32:23.916Z,3.65
2023-01-21T16:34:50.415Z,3.30
2023-01-21T16:37:19.329Z,2.45
2023-01-21T16:39:46.457Z,2.70
2023-01-21T16:42:38.187Z,2.75
2023-01-21T16:45:15.982Z,2.42
2023-01-21T16:47:42.746Z,2.10
2023-01-21T16:50:35.667Z,2.58
2023-01-21T16:53:06.155Z,2.17
2023-01-21T16:55:32.699Z,2.40
2023-01-21T16:57:59.391Z,2.40
2023-01-21T17:00:28.388Z,3.17
2023-01-21T17:02:55.715Z,2.88
2023-01-21T17:05:23.075Z,3.10
2023-01-21T17:07:52.727Z,2.33
2023-01-21T17:10:24.614Z,2.40
2023-01-21T17:13:01.529Z,2.28
2023-01-21T17:15:38.088Z,3.13
2023-01-21T17:18:23.447Z,2.60
2023-01-21T17:20:52.801Z,2.95
2023-01-21T17:23:19.189Z,2.97
2023-01-21T17:25:45.902Z,3.08
2023-01-21T17:28:18.949Z,3.40
2023-01-21T17:30:45.908Z,3.03
2023-01-21T17:33:26.989Z,2.50
2023-01-21T17:36:16.542Z,3.10
2023-01-21T17:38:44.454Z,2.75
2023-01-21T17:41:29.958Z,3.03
2023-01-21T17:43:56.498Z,3.53
2023-01-21T17:46:23.710Z,3.05
2023-01-21T17:48:51.637Z,3.63
2023-01-21T17:51:20.503Z,3.20
2023-01-21T17:53:57.253Z,3.47
2023-01-21T17:56:36.946Z,3.92
2023-01-21T17:59:03.752Z,3.55
2023-01-21T18:01:30.462Z,3.83
2023-01-21T18:03:57.176Z,3.97
2023-01-21T18:06:27.981Z,4.90
2023-01-21T18:08:56.223Z,4.68
2023-01-21T18:11:22.793Z,5.03
2023-01-21T18:13:49.346Z,4.50
2023-01-21T18:16:15.946Z,5.30
2023-01-21T18:18:42.547Z,3.55
2023-01-21T18:21:17.599Z,3.40
2023-01-21T18:23:44.060Z,3.47
2023-01-21T18:26:16.859Z,3.85
2023-01-21T18:28:43.374Z,3.78
2023-01-21T18:31:10.260Z,3.25
2023-01-21T18:33:36.911Z,3.15
2023-01-21T18:36:03.461Z,2.63
2023-01-21T18:38:32.629Z,2.72
2023-01-21T18:41:00.043Z,2.20
2023-01-21T18:43:26.580Z,2.92
2023-01-21T18:45:54.433Z,2.55
2023-01-21T18:48:22.967Z,2.65
2023-01-21T18:50:49.553Z,2.72
2023-01-21T18:53:16.116Z,3.20
2023-01-21T18:55:43.889Z,3.05
2023-01-21T18:58:13.637Z,2.95
2023-01-21T19:00:40.447Z,3.63
2023-01-21T19:03:07.095Z,2.75
2023-01-21T19:05:36.035Z,3.33
2023-01-21T19:08:02.631Z,3.20
2023-01-21T19:10:29.132Z,2.53
2023-01-21T19:12:55.820Z,3.50
2023-01-21T19:15:26.370Z,4.10
2023-01-21T19:17:52.995Z,5.15
2023-01-21T19:20:24.047Z,3.55
2023-01-21T19:22:51.461Z,3.35
2023-01-21T19:25:40.470Z,2.95
2023-01-21T19:28:09.447Z,2.80
2023-01-21T19:30:36.450Z,3.40
2023-01-21T19:33:05.484Z,2.63
2023-01-21T19:35:38.769Z,3.08
2023-01-21T19:38:13.835Z,3.60
2023-01-21T19:40:41.928Z,3.53
2023-01-21T19:43:12.433Z,2.95
2023-01-21T19:45:39.141Z,2.50
2023-01-21T19:48:08.033Z,3.08
2023-01-21T19:50:34.754Z,3.22
2023-01-21T19:53:15.606Z,2.50
2023-01-21T19:56:04.863Z,2.60
2023-01-21T19:58:31.547Z,2.60
2023-01-21T20:00:58.190Z,2.70
2023-01-21T20:03:30.734Z,2.70
2023-01-21T20:06:02.614Z,2.65
2023-01-21T20:08:29.722Z,2.33
2023-01-21T20:11:02.242Z,3.10
2023-01-21T20:13:28.916Z,3.08
2023-01-21T20:15:55.703Z,2.83
2023-01-21T20:18:24.092Z,2.85
2023-01-21T20:20:50.854Z,3.00
2023-01-21T20:23:17.842Z,2.67
2023-01-21T20:28:49.356Z,2.50
2023-01-21T20:31:16.142Z,2.20
2023-01-21T20:33:45.683Z,2.85
2023-01-21T20:36:24.096Z,2.97
2023-01-21T20:38:57.367Z,2.75
2023-01-21T20:41:24.024Z,2.97
2023-01-21T20:44:11.254Z,2.65
2023-01-21T20:46:43.931Z,2.70
2023-01-21T20:49:42.753Z,2.90
2023-01-21T20:52:12.222Z,3.05
2023-01-21T20:54:41.917Z,2.53
2023-01-21T20:57:21.123Z,2.80
2023-01-21T20:59:47.852Z,2.75
2023-01-21T21:02:14.421Z,2.53
2023-01-21T21:04:40.973Z,2.33
2023-01-21T21:07:16.021Z,2.78
2023-01-21T21:09:42.658Z,2.55
2023-01-21T21:12:12.231Z,2.63
2023-01-21T21:14:38.765Z,2.45
2023-01-21T21:17:08.846Z,3.03
2023-01-21T21:19:35.431Z,2.40
2023-01-21T21:22:02.052Z,2.83
2023-01-21T21:24:28.725Z,2.75
2023-01-21T21:26:55.649Z,2.35
2023-01-21T21:29:22.266Z,2.78
2023-01-21T21:31:49.164Z,2.53
2023-01-21T21:34:15.760Z,2.70
2023-01-21T21:36:42.397Z,3.30
2023-01-21T21:39:09.143Z,3.40
2023-01-21T21:41:35.656Z,3.33
2023-01-21T21:44:02.186Z,3.13
2023-01-21T21:46:28.759Z,3.22
2023-01-21T21:48:55.305Z,3.17
2023-01-21T21:51:22.155Z,2.53
2023-01-21T21:53:48.703Z,2.90
2023-01-21T21:56:19.678Z,2.95
2023-01-21T21:58:46.196Z,2.45
2023-01-21T22:01:14.741Z,2.47
2023-01-21T22:03:41.561Z,2.80
2023-01-21T22:06:08.261Z,2.67
2023-01-21T22:08:36.121Z,2.85
2023-01-21T22:11:04.271Z,2.95
2023-01-21T22:13:32.113Z,3.15
2023-01-21T22:15:59.916Z,3.15
2023-01-21T22:18:27.360Z,3.00
2023-01-21T22:20:59.829Z,2.88
2023-01-21T22:23:26.428Z,2.95
2023-01-21T22:25:53.013Z,3.35
2023-01-21T22:28:19.565Z,3.00
2023-01-21T22:30:46.324Z,3.28
2023-01-21T22:33:13.044Z,3.03
2023-01-21T22:35:39.648Z,3.10
2023-01-21T22:38:06.741Z,4.00
2023-01-21T22:40:33.672Z,3.95
2023-01-21T22:43:00.218Z,4.22
2023-01-21T22:45:26.754Z,4.10
2023-01-21T22:47:53.305Z,3.70
2023-01-21T22:50:19.919Z,3.67
2023-01-21T22:52:46.549Z,3.75
2023-01-21T22:55:13.093Z,3.10
2023-01-21T22:57:40.012Z,2.97
2023-01-21T23:00:08.953Z,2.60
2023-01-21T23:02:35.809Z,2.97
2023-01-21T23:05:02.452Z,3.13
2023-01-21T23:07:29.107Z,2.65
2023-01-21T23:09:55.707Z,2.97
2023-01-21T23:12:22.343Z,2.85
2023-01-21T23:14:48.907Z,2.53
2023-01-21T23:17:15.469Z,2.22
2023-01-21T23:19:42.227Z,2.90
2023-01-21T23:22:08.932Z,2.88
2023-01-21T23:24:35.485Z,3.13
2023-01-21T23:27:02.099Z,2.72
2023-01-21T23:29:28.638Z,2.67
2023-01-21T23:31:55.301Z,3.30
2023-01-21T23:34:21.854Z,3.05
2023-01-21T23:36:48.880Z,2.80
2023-01-21T23:39:15.528Z,2.80
2023-01-21T23:41:42.072Z,2.78
2023-01-21T23:44:10.679Z,3.00
2023-01-21T23:46:37.464Z,2.47
2023-01-21T23:49:03.993Z,2.80
2023-01-21T23:51:30.560Z,2.55
2023-01-21T23:53:57.049Z,2.28
2023-01-21T23:56:24.451Z,2.72
2023-01-21T23:58:51.110Z,2.67
